sensor_id;sensor_type;location;lat;lon;timestamp;P1;durP1;ratioP1;P2;durP2;ratioP2
1454;SDS011;721;48.168;12.818;2024-03-08T00:01:31;1.37;;;1.27;;
1454;SDS011;721;48.168;12.818;2024-03-08T00:03:57;1.30;;;1.10;;
1454;SDS011;721;48.168;12.818;2024-03-08T00:06:24;1.70;;;1.60;;
1454;SDS011;721;48.168;12.818;2024-03-08T00:08:52;1.43;;;1.33;;
1454;SDS011;721;48.168;12.818;2024-03-08T00:11:19;0.90;;;0.90;;
1454;SDS011;721;48.168;12.818;2024-03-08T00:13:46;1.00;;;1.00;;
1454;SDS011;721;48.168;12.818;2024-03-08T00:16:13;1.40;;;1.30;;
1454;SDS011;721;48.168;12.818;2024-03-08T00:18:40;1.17;;;0.90;;
1454;SDS011;721;48.168;12.818;2024-03-08T00:21:07;2.30;;;1.73;;
1454;SDS011;721;48.168;12.818;2024-03-08T00:23:35;0.80;;;0.80;;
1454;SDS011;721;48.168;12.818;2024-03-08T00:26:03;10.60;;;1.53;;
1454;SDS011;721;48.168;12.818;2024-03-08T00:28:31;5.80;;;1.33;;
1454;SDS011;721;48.168;12.818;2024-03-08T00:30:59;0.80;;;0.80;;
1454;SDS011;721;48.168;12.818;2024-03-08T00:33:26;6.23;;;2.47;;
1454;SDS011;721;48.168;12.818;2024-03-08T00:35:52;1.00;;;1.00;;
1454;SDS011;721;48.168;12.818;2024-03-08T00:38:19;2.87;;;2.60;;
1454;SDS011;721;48.168;12.818;2024-03-08T00:40:46;2.40;;;1.10;;
1454;SDS011;721;48.168;12.818;2024-03-08T00:43:14;1.53;;;1.43;;
1454;SDS011;721;48.168;12.818;2024-03-08T00:45:41;1.43;;;1.33;;
1454;SDS011;721;48.168;12.818;2024-03-08T00:48:08;1.60;;;1.20;;
1454;SDS011;721;48.168;12.818;2024-03-08T00:50:36;1.20;;;1.10;;
1454;SDS011;721;48.168;12.818;2024-03-08T00:53:02;0.80;;;0.80;;
1454;SDS011;721;48.168;12.818;2024-03-08T00:55:30;0.93;;;0.93;;
1454;SDS011;721;48.168;12.818;2024-03-08T00:57:58;1.40;;;1.30;;
1454;SDS011;721;48.168;12.818;2024-03-08T01:00:26;0.80;;;0.80;;
1454;SDS011;721;48.168;12.818;2024-03-08T01:02:53;1.53;;;1.43;;
1454;SDS011;721;48.168;12.818;2024-03-08T01:05:20;1.20;;;1.10;;
1454;SDS011;721;48.168;12.818;2024-03-08T01:07:48;1.30;;;1.20;;
1454;SDS011;721;48.168;12.818;2024-03-08T01:10:15;1.00;;;1.00;;
1454;SDS011;721;48.168;12.818;2024-03-08T01:12:42;0.80;;;0.80;;
1454;SDS011;721;48.168;12.818;2024-03-08T01:15:10;1.23;;;1.10;;
1454;SDS011;721;48.168;12.818;2024-03-08T01:17:38;0.80;;;0.80;;
1454;SDS011;721;48.168;12.818;2024-03-08T01:20:05;0.80;;;0.80;;
1454;SDS011;721;48.168;12.818;2024-03-08T01:22:35;0.90;;;0.90;;
1454;SDS011;721;48.168;12.818;2024-03-08T01:25:02;1.17;;;1.07;;
1454;SDS011;721;48.168;12.818;2024-03-08T01:27:30;1.53;;;1.43;;
1454;SDS011;721;48.168;12.818;2024-03-08T01:29:57;1.23;;;1.13;;
1454;SDS011;721;48.168;12.818;2024-03-08T01:32:24;0.80;;;0.80;;
1454;SDS011;721;48.168;12.818;2024-03-08T01:34:52;0.97;;;0.97;;
1454;SDS011;721;48.168;12.818;2024-03-08T01:37:19;0.80;;;0.80;;
1454;SDS011;721;48.168;12.818;2024-03-08T01:39:46;0.90;;;0.90;;
1454;SDS011;721;48.168;12.818;2024-03-08T01:42:13;1.00;;;1.00;;
1454;SDS011;721;48.168;12.818;2024-03-08T01:44:42;1.17;;;1.17;;
1454;SDS011;721;48.168;12.818;2024-03-08T01:47:09;1.20;;;1.10;;
1454;SDS011;721;48.168;12.818;2024-03-08T01:49:37;0.90;;;0.90;;
1454;SDS011;721;48.168;12.818;2024-03-08T01:52:05;0.90;;;0.90;;
1454;SDS011;721;48.168;12.818;2024-03-08T01:54:33;1.30;;;1.30;;
1454;SDS011;721;48.168;12.818;2024-03-08T01:57:00;1.03;;;0.93;;
1454;SDS011;721;48.168;12.818;2024-03-08T01:59:27;1.63;;;1.53;;
1454;SDS011;721;48.168;12.818;2024-03-08T02:01:55;2.03;;;1.43;;
1454;SDS011;721;48.168;12.818;2024-03-08T02:04:24;1.20;;;1.10;;
1454;SDS011;721;48.168;12.818;2024-03-08T02:06:51;0.80;;;0.80;;
1454;SDS011;721;48.168;12.818;2024-03-08T02:09:20;1.53;;;1.43;;
1454;SDS011;721;48.168;12.818;2024-03-08T02:11:47;1.10;;;1.10;;
1454;SDS011;721;48.168;12.818;2024-03-08T02:14:14;0.80;;;0.80;;
1454;SDS011;721;48.168;12.818;2024-03-08T02:16:41;1.93;;;1.13;;
1454;SDS011;721;48.168;12.818;2024-03-08T02:19:07;1.23;;;1.13;;
1454;SDS011;721;48.168;12.818;2024-03-08T02:21:36;1.20;;;1.20;;
1454;SDS011;721;48.168;12.818;2024-03-08T02:24:04;1.47;;;1.07;;
1454;SDS011;721;48.168;12.818;2024-03-08T02:26:31;1.17;;;1.17;;
1454;SDS011;721;48.168;12.818;2024-03-08T02:28:58;1.00;;;1.00;;
1454;SDS011;721;48.168;12.818;2024-03-08T02:31:24;1.57;;;1.47;;
1454;SDS011;721;48.168;12.818;2024-03-08T02:33:51;0.80;;;0.80;;
1454;SDS011;721;48.168;12.818;2024-03-08T02:36:18;1.90;;;1.07;;
1454;SDS011;721;48.168;12.818;2024-03-08T02:38:46;1.50;;;1.40;;
1454;SDS011;721;48.168;12.818;2024-03-08T02:41:13;1.10;;;1.10;;
1454;SDS011;721;48.168;12.818;2024-03-08T02:43:40;1.90;;;1.77;;
1454;SDS011;721;48.168;12.818;2024-03-08T02:46:06;3.33;;;2.30;;
1454;SDS011;721;48.168;12.818;2024-03-08T02:48:33;1.00;;;0.90;;
1454;SDS011;721;48.168;12.818;2024-03-08T02:51:00;1.03;;;1.03;;
1454;SDS011;721;48.168;12.818;2024-03-08T02:53:28;1.73;;;1.43;;
1454;SDS011;721;48.168;12.818;2024-03-08T02:55:56;1.40;;;1.30;;
1454;SDS011;721;48.168;12.818;2024-03-08T02:58:23;11.80;;;2.20;;
1454;SDS011;721;48.168;12.818;2024-03-08T03:00:50;1.40;;;1.30;;
1454;SDS011;721;48.168;12.818;2024-03-08T03:03:16;1.10;;;1.10;;
1454;SDS011;721;48.168;12.818;2024-03-08T03:05:43;0.80;;;0.80;;
1454;SDS011;721;48.168;12.818;2024-03-08T03:08:10;1.30;;;1.20;;
1454;SDS011;721;48.168;12.818;2024-03-08T03:10:38;4.20;;;1.83;;
1454;SDS011;721;48.168;12.818;2024-03-08T03:13:06;1.20;;;1.10;;
1454;SDS011;721;48.168;12.818;2024-03-08T03:15:33;7.70;;;2.03;;
1454;SDS011;721;48.168;12.818;2024-03-08T03:18:00;0.80;;;0.80;;
1454;SDS011;721;48.168;12.818;2024-03-08T03:20:27;2.73;;;1.67;;
1454;SDS011;721;48.168;12.818;2024-03-08T03:22:57;1.53;;;1.43;;
1454;SDS011;721;48.168;12.818;2024-03-08T03:25:26;1.10;;;1.00;;
1454;SDS011;721;48.168;12.818;2024-03-08T03:27:59;0.80;;;0.80;;
1454;SDS011;721;48.168;12.818;2024-03-08T03:30:27;1.93;;;1.03;;
1454;SDS011;721;48.168;12.818;2024-03-08T03:32:58;4.20;;;1.60;;
1454;SDS011;721;48.168;12.818;2024-03-08T03:35:25;1.00;;;1.00;;
1454;SDS011;721;48.168;12.818;2024-03-08T03:37:52;1.20;;;1.10;;
1454;SDS011;721;48.168;12.818;2024-03-08T03:40:30;1.80;;;0.80;;
1454;SDS011;721;48.168;12.818;2024-03-08T03:42:57;1.07;;;0.97;;
1454;SDS011;721;48.168;12.818;2024-03-08T03:45:24;1.47;;;1.37;;
1454;SDS011;721;48.168;12.818;2024-03-08T03:47:52;2.10;;;1.63;;
1454;SDS011;721;48.168;12.818;2024-03-08T03:50:19;30.97;;;2.33;;
1454;SDS011;721;48.168;12.818;2024-03-08T03:52:47;1.27;;;1.20;;
1454;SDS011;721;48.168;12.818;2024-03-08T03:55:14;1.30;;;1.30;;
1454;SDS011;721;48.168;12.818;2024-03-08T03:57:41;1.50;;;1.40;;
1454;SDS011;721;48.168;12.818;2024-03-08T04:00:11;1.77;;;1.23;;
1454;SDS011;721;48.168;12.818;2024-03-08T04:02:39;1.43;;;1.33;;
1454;SDS011;721;48.168;12.818;2024-03-08T04:05:07;0.97;;;0.97;;
1454;SDS011;721;48.168;12.818;2024-03-08T04:07:34;3.23;;;1.20;;
1454;SDS011;721;48.168;12.818;2024-03-08T04:10:02;1.20;;;1.20;;
1454;SDS011;721;48.168;12.818;2024-03-08T04:12:31;1.50;;;1.40;;
1454;SDS011;721;48.168;12.818;2024-03-08T04:14:58;2.70;;;2.50;;
1454;SDS011;721;48.168;12.818;2024-03-08T04:17:24;1.03;;;1.03;;
1454;SDS011;721;48.168;12.818;2024-03-08T04:19:52;0.87;;;0.87;;
1454;SDS011;721;48.168;12.818;2024-03-08T04:22:19;2.37;;;1.53;;
1454;SDS011;721;48.168;12.818;2024-03-08T04:24:46;1.57;;;1.47;;
1454;SDS011;721;48.168;12.818;2024-03-08T04:27:13;1.50;;;1.40;;
1454;SDS011;721;48.168;12.818;2024-03-08T04:29:40;2.30;;;1.83;;
1454;SDS011;721;48.168;12.818;2024-03-08T04:32:07;18.17;;;1.93;;
1454;SDS011;721;48.168;12.818;2024-03-08T04:34:34;0.90;;;0.90;;
1454;SDS011;721;48.168;12.818;2024-03-08T04:37:03;0.80;;;0.80;;
1454;SDS011;721;48.168;12.818;2024-03-08T04:39:30;3.07;;;1.43;;
1454;SDS011;721;48.168;12.818;2024-03-08T04:41:58;5.43;;;1.63;;
1454;SDS011;721;48.168;12.818;2024-03-08T04:44:28;2.80;;;1.73;;
1454;SDS011;721;48.168;12.818;2024-03-08T04:46:55;1.37;;;1.10;;
1454;SDS011;721;48.168;12.818;2024-03-08T04:49:21;3.07;;;1.73;;
1454;SDS011;721;48.168;12.818;2024-03-08T04:51:48;6.63;;;1.53;;
1454;SDS011;721;48.168;12.818;2024-03-08T04:54:17;2.93;;;1.87;;
1454;SDS011;721;48.168;12.818;2024-03-08T04:56:43;2.10;;;1.00;;
1454;SDS011;721;48.168;12.818;2024-03-08T04:59:11;5.93;;;1.97;;
1454;SDS011;721;48.168;12.818;2024-03-08T05:01:38;0.80;;;0.80;;
1454;SDS011;721;48.168;12.818;2024-03-08T05:04:05;2.30;;;1.53;;
1454;SDS011;721;48.168;12.818;2024-03-08T05:06:32;0.90;;;0.90;;
1454;SDS011;721;48.168;12.818;2024-03-08T05:08:59;6.10;;;2.77;;
1454;SDS011;721;48.168;12.818;2024-03-08T05:11:27;1.63;;;1.17;;
1454;SDS011;721;48.168;12.818;2024-03-08T05:13:54;2.13;;;1.77;;
1454;SDS011;721;48.168;12.818;2024-03-08T05:16:20;1.40;;;1.30;;
1454;SDS011;721;48.168;12.818;2024-03-08T05:18:49;2.60;;;1.47;;
1454;SDS011;721;48.168;12.818;2024-03-08T05:21:16;1.93;;;1.83;;
1454;SDS011;721;48.168;12.818;2024-03-08T05:23:45;1.47;;;1.17;;
1454;SDS011;721;48.168;12.818;2024-03-08T05:26:12;3.37;;;1.67;;
1454;SDS011;721;48.168;12.818;2024-03-08T05:28:40;1.43;;;1.27;;
1454;SDS011;721;48.168;12.818;2024-03-08T05:31:07;1.73;;;1.63;;
1454;SDS011;721;48.168;12.818;2024-03-08T05:33:34;1.53;;;1.43;;
1454;SDS011;721;48.168;12.818;2024-03-08T05:36:01;1.60;;;1.50;;
1454;SDS011;721;48.168;12.818;2024-03-08T05:38:28;1.63;;;1.43;;
1454;SDS011;721;48.168;12.818;2024-03-08T05:40:55;1.20;;;1.20;;
1454;SDS011;721;48.168;12.818;2024-03-08T05:43:21;3.13;;;2.90;;
1454;SDS011;721;48.168;12.818;2024-03-08T05:45:49;0.90;;;0.90;;
1454;SDS011;721;48.168;12.818;2024-03-08T05:48:16;1.47;;;1.13;;
1454;SDS011;721;48.168;12.818;2024-03-08T05:50:43;1.00;;;1.00;;
1454;SDS011;721;48.168;12.818;2024-03-08T05:53:11;1.40;;;1.40;;
1454;SDS011;721;48.168;12.818;2024-03-08T05:55:38;0.90;;;0.90;;
1454;SDS011;721;48.168;12.818;2024-03-08T05:58:05;1.30;;;1.20;;
1454;SDS011;721;48.168;12.818;2024-03-08T06:00:33;1.90;;;1.50;;
1454;SDS011;721;48.168;12.818;2024-03-08T06:03:02;2.10;;;1.57;;
1454;SDS011;721;48.168;12.818;2024-03-08T06:05:29;5.60;;;1.27;;
1454;SDS011;721;48.168;12.818;2024-03-08T06:07:56;1.00;;;1.00;;
1454;SDS011;721;48.168;12.818;2024-03-08T06:10:23;0.80;;;0.80;;
1454;SDS011;721;48.168;12.818;2024-03-08T06:12:50;2.20;;;2.10;;
1454;SDS011;721;48.168;12.818;2024-03-08T06:15:16;0.80;;;0.80;;
1454;SDS011;721;48.168;12.818;2024-03-08T06:17:45;1.57;;;1.47;;
1454;SDS011;721;48.168;12.818;2024-03-08T06:20:14;1.10;;;1.10;;
1454;SDS011;721;48.168;12.818;2024-03-08T06:22:41;1.57;;;1.10;;
1454;SDS011;721;48.168;12.818;2024-03-08T06:25:10;1.63;;;1.53;;
1454;SDS011;721;48.168;12.818;2024-03-08T06:27:38;1.40;;;1.30;;
1454;SDS011;721;48.168;12.818;2024-03-08T06:30:06;3.07;;;1.93;;
1454;SDS011;721;48.168;12.818;2024-03-08T06:32:34;6.13;;;1.63;;
1454;SDS011;721;48.168;12.818;2024-03-08T06:35:02;1.00;;;1.00;;
1454;SDS011;721;48.168;12.818;2024-03-08T06:37:32;1.20;;;1.20;;
1454;SDS011;721;48.168;12.818;2024-03-08T06:39:59;2.10;;;1.17;;
1454;SDS011;721;48.168;12.818;2024-03-08T06:42:27;2.07;;;1.10;;
1454;SDS011;721;48.168;12.818;2024-03-08T06:44:54;1.63;;;1.33;;
1454;SDS011;721;48.168;12.818;2024-03-08T06:47:28;1.13;;;1.03;;
1454;SDS011;721;48.168;12.818;2024-03-08T06:49:55;0.80;;;0.80;;
1454;SDS011;721;48.168;12.818;2024-03-08T06:52:21;0.93;;;0.93;;
1454;SDS011;721;48.168;12.818;2024-03-08T06:54:50;1.60;;;1.50;;
1454;SDS011;721;48.168;12.818;2024-03-08T06:57:17;4.10;;;1.27;;
1454;SDS011;721;48.168;12.818;2024-03-08T06:59:47;2.07;;;1.10;;
1454;SDS011;721;48.168;12.818;2024-03-08T07:02:13;1.30;;;1.20;;
1454;SDS011;721;48.168;12.818;2024-03-08T07:04:40;1.10;;;1.10;;
1454;SDS011;721;48.168;12.818;2024-03-08T07:07:07;1.10;;;1.10;;
1454;SDS011;721;48.168;12.818;2024-03-08T07:09:34;1.70;;;1.60;;
1454;SDS011;721;48.168;12.818;2024-03-08T07:12:03;2.20;;;1.63;;
1454;SDS011;721;48.168;12.818;2024-03-08T07:14:30;1.60;;;1.50;;
1454;SDS011;721;48.168;12.818;2024-03-08T07:16:57;1.70;;;1.60;;
1454;SDS011;721;48.168;12.818;2024-03-08T07:19:23;0.90;;;0.90;;
1454;SDS011;721;48.168;12.818;2024-03-08T07:21:50;1.50;;;1.03;;
1454;SDS011;721;48.168;12.818;2024-03-08T07:24:17;1.23;;;1.10;;
1454;SDS011;721;48.168;12.818;2024-03-08T07:27:00;1.73;;;1.63;;
1454;SDS011;721;48.168;12.818;2024-03-08T07:29:30;4.40;;;1.33;;
1454;SDS011;721;48.168;12.818;2024-03-08T07:31:56;0.80;;;0.80;;
1454;SDS011;721;48.168;12.818;2024-03-08T07:34:36;1.10;;;1.00;;
1454;SDS011;721;48.168;12.818;2024-03-08T07:37:04;1.00;;;1.00;;
1454;SDS011;721;48.168;12.818;2024-03-08T07:39:36;0.80;;;0.80;;
1454;SDS011;721;48.168;12.818;2024-03-08T07:42:05;1.00;;;1.00;;
1454;SDS011;721;48.168;12.818;2024-03-08T07:44:32;1.33;;;1.23;;
1454;SDS011;721;48.168;12.818;2024-03-08T07:46:59;1.23;;;1.20;;
1454;SDS011;721;48.168;12.818;2024-03-08T07:49:26;0.90;;;0.90;;
1454;SDS011;721;48.168;12.818;2024-03-08T07:51:53;2.40;;;1.60;;
1454;SDS011;721;48.168;12.818;2024-03-08T07:54:19;1.63;;;1.53;;
1454;SDS011;721;48.168;12.818;2024-03-08T07:56:46;1.30;;;1.20;;
1454;SDS011;721;48.168;12.818;2024-03-08T07:59:14;1.30;;;1.20;;
1454;SDS011;721;48.168;12.818;2024-03-08T08:01:41;0.70;;;0.70;;
1454;SDS011;721;48.168;12.818;2024-03-08T08:04:09;1.10;;;1.00;;
1454;SDS011;721;48.168;12.818;2024-03-08T08:06:37;0.90;;;0.90;;
1454;SDS011;721;48.168;12.818;2024-03-08T08:09:06;1.00;;;0.97;;
1454;SDS011;721;48.168;12.818;2024-03-08T08:11:39;1.70;;;1.30;;
1454;SDS011;721;48.168;12.818;2024-03-08T08:14:06;0.90;;;0.90;;
1454;SDS011;721;48.168;12.818;2024-03-08T08:16:35;1.23;;;1.17;;
1454;SDS011;721;48.168;12.818;2024-03-08T08:19:03;1.33;;;1.23;;
1454;SDS011;721;48.168;12.818;2024-03-08T08:21:32;1.00;;;1.00;;
1454;SDS011;721;48.168;12.818;2024-03-08T08:23:59;1.43;;;1.40;;
1454;SDS011;721;48.168;12.818;2024-03-08T08:26:28;9.80;;;1.30;;
1454;SDS011;721;48.168;12.818;2024-03-08T08:28:55;3.00;;;1.10;;
1454;SDS011;721;48.168;12.818;2024-03-08T08:31:22;0.80;;;0.80;;
1454;SDS011;721;48.168;12.818;2024-03-08T08:33:50;1.10;;;1.10;;
1454;SDS011;721;48.168;12.818;2024-03-08T08:36:21;1.73;;;1.10;;
1454;SDS011;721;48.168;12.818;2024-03-08T08:38:48;1.30;;;1.20;;
1454;SDS011;721;48.168;12.818;2024-03-08T08:41:15;0.80;;;0.80;;
1454;SDS011;721;48.168;12.818;2024-03-08T08:43:42;0.90;;;0.90;;
1454;SDS011;721;48.168;12.818;2024-03-08T08:46:09;1.03;;;1.03;;
1454;SDS011;721;48.168;12.818;2024-03-08T08:48:38;0.97;;;0.97;;
1454;SDS011;721;48.168;12.818;2024-03-08T08:51:09;0.80;;;0.80;;
1454;SDS011;721;48.168;12.818;2024-03-08T08:53:37;1.23;;;1.20;;
1454;SDS011;721;48.168;12.818;2024-03-08T08:56:06;1.10;;;1.00;;
1454;SDS011;721;48.168;12.818;2024-03-08T08:58:33;1.63;;;1.53;;
1454;SDS011;721;48.168;12.818;2024-03-08T09:01:00;1.10;;;1.10;;
1454;SDS011;721;48.168;12.818;2024-03-08T09:03:27;0.93;;;0.93;;
1454;SDS011;721;48.168;12.818;2024-03-08T09:05:54;1.30;;;1.27;;
1454;SDS011;721;48.168;12.818;2024-03-08T09:08:22;1.50;;;1.40;;
1454;SDS011;721;48.168;12.818;2024-03-08T09:10:50;3.37;;;1.50;;
1454;SDS011;721;48.168;12.818;2024-03-08T09:13:16;1.37;;;1.13;;
1454;SDS011;721;48.168;12.818;2024-03-08T09:15:43;1.00;;;1.00;;
1454;SDS011;721;48.168;12.818;2024-03-08T09:18:10;1.00;;;1.00;;
1454;SDS011;721;48.168;12.818;2024-03-08T09:20:37;1.00;;;1.00;;
1454;SDS011;721;48.168;12.818;2024-03-08T09:23:06;2.77;;;2.60;;
1454;SDS011;721;48.168;12.818;2024-03-08T09:25:34;3.07;;;1.77;;
1454;SDS011;721;48.168;12.818;2024-03-08T09:28:01;1.10;;;1.10;;
1454;SDS011;721;48.168;12.818;2024-03-08T09:30:28;0.90;;;0.90;;
1454;SDS011;721;48.168;12.818;2024-03-08T09:32:55;0.80;;;0.80;;
1454;SDS011;721;48.168;12.818;2024-03-08T09:35:22;1.30;;;1.20;;
1454;SDS011;721;48.168;12.818;2024-03-08T09:37:49;1.53;;;1.43;;
1454;SDS011;721;48.168;12.818;2024-03-08T09:40:16;0.80;;;0.80;;
1454;SDS011;721;48.168;12.818;2024-03-08T09:42:45;1.43;;;1.33;;
1454;SDS011;721;48.168;12.818;2024-03-08T09:45:14;1.03;;;1.03;;
1454;SDS011;721;48.168;12.818;2024-03-08T09:47:41;1.53;;;1.43;;
1454;SDS011;721;48.168;12.818;2024-03-08T09:50:09;1.13;;;1.13;;
1454;SDS011;721;48.168;12.818;2024-03-08T09:52:38;0.80;;;0.80;;
1454;SDS011;721;48.168;12.818;2024-03-08T09:55:05;2.30;;;1.23;;
1454;SDS011;721;48.168;12.818;2024-03-08T09:57:33;2.10;;;2.00;;
1454;SDS011;721;48.168;12.818;2024-03-08T10:00:03;1.00;;;1.00;;
1454;SDS011;721;48.168;12.818;2024-03-08T10:02:37;2.27;;;2.07;;
1454;SDS011;721;48.168;12.818;2024-03-08T10:05:04;0.80;;;0.80;;
1454;SDS011;721;48.168;12.818;2024-03-08T10:07:31;1.33;;;1.20;;
1454;SDS011;721;48.168;12.818;2024-03-08T10:09:58;1.17;;;1.07;;
1454;SDS011;721;48.168;12.818;2024-03-08T10:12:25;5.07;;;1.97;;
1454;SDS011;721;48.168;12.818;2024-03-08T10:14:54;1.10;;;1.03;;
1454;SDS011;721;48.168;12.818;2024-03-08T10:17:22;1.27;;;1.17;;
1454;SDS011;721;48.168;12.818;2024-03-08T10:19:50;1.57;;;1.20;;
1454;SDS011;721;48.168;12.818;2024-03-08T10:22:18;3.40;;;2.83;;
1454;SDS011;721;48.168;12.818;2024-03-08T10:24:45;1.13;;;1.03;;
1454;SDS011;721;48.168;12.818;2024-03-08T10:27:12;1.17;;;1.13;;
1454;SDS011;721;48.168;12.818;2024-03-08T10:29:41;2.87;;;2.67;;
1454;SDS011;721;48.168;12.818;2024-03-08T10:32:09;1.13;;;1.13;;
1454;SDS011;721;48.168;12.818;2024-03-08T10:34:38;2.60;;;2.17;;
1454;SDS011;721;48.168;12.818;2024-03-08T10:37:07;2.10;;;1.60;;
1454;SDS011;721;48.168;12.818;2024-03-08T10:39:39;1.10;;;1.10;;
1454;SDS011;721;48.168;12.818;2024-03-08T10:42:13;1.33;;;1.23;;
1454;SDS011;721;48.168;12.818;2024-03-08T10:44:46;1.00;;;1.00;;
1454;SDS011;721;48.168;12.818;2024-03-08T10:47:22;1.57;;;1.47;;
1454;SDS011;721;48.168;12.818;2024-03-08T10:50:11;0.90;;;0.90;;
1454;SDS011;721;48.168;12.818;2024-03-08T10:52:45;6.60;;;2.53;;
1454;SDS011;721;48.168;12.818;2024-03-08T10:55:16;3.80;;;2.47;;
1454;SDS011;721;48.168;12.818;2024-03-08T10:57:45;5.07;;;2.87;;
1454;SDS011;721;48.168;12.818;2024-03-08T11:00:13;2.27;;;1.97;;
1454;SDS011;721;48.168;12.818;2024-03-08T11:02:43;3.10;;;2.40;;
1454;SDS011;721;48.168;12.818;2024-03-08T11:05:11;2.60;;;2.37;;
1454;SDS011;721;48.168;12.818;2024-03-08T11:07:57;4.77;;;2.70;;
1454;SDS011;721;48.168;12.818;2024-03-08T11:10:25;3.07;;;2.07;;
1454;SDS011;721;48.168;12.818;2024-03-08T11:12:52;4.13;;;2.00;;
1454;SDS011;721;48.168;12.818;2024-03-08T11:15:19;3.93;;;2.67;;
1454;SDS011;721;48.168;12.818;2024-03-08T11:17:46;1.93;;;1.83;;
1454;SDS011;721;48.168;12.818;2024-03-08T11:20:15;4.50;;;2.27;;
1454;SDS011;721;48.168;12.818;2024-03-08T11:22:49;1.80;;;1.70;;
1454;SDS011;721;48.168;12.818;2024-03-08T11:25:33;1.20;;;1.13;;
1454;SDS011;721;48.168;12.818;2024-03-08T11:28:07;1.97;;;1.77;;
1454;SDS011;721;48.168;12.818;2024-03-08T11:30:41;1.30;;;1.20;;
1454;SDS011;721;48.168;12.818;2024-03-08T11:33:10;6.63;;;1.90;;
1454;SDS011;721;48.168;12.818;2024-03-08T11:35:40;2.47;;;1.93;;
1454;SDS011;721;48.168;12.818;2024-03-08T11:38:11;1.47;;;1.37;;
1454;SDS011;721;48.168;12.818;2024-03-08T11:40:39;2.27;;;2.10;;
1454;SDS011;721;48.168;12.818;2024-03-08T11:43:07;1.93;;;1.83;;
1454;SDS011;721;48.168;12.818;2024-03-08T11:45:34;2.13;;;1.80;;
1454;SDS011;721;48.168;12.818;2024-03-08T11:48:02;1.80;;;1.70;;
1454;SDS011;721;48.168;12.818;2024-03-08T11:50:30;1.97;;;1.77;;
1454;SDS011;721;48.168;12.818;2024-03-08T11:53:03;2.93;;;2.00;;
1454;SDS011;721;48.168;12.818;2024-03-08T11:55:30;3.90;;;2.37;;
1454;SDS011;721;48.168;12.818;2024-03-08T11:58:01;1.90;;;1.80;;
1454;SDS011;721;48.168;12.818;2024-03-08T12:00:29;2.03;;;1.40;;
1454;SDS011;721;48.168;12.818;2024-03-08T12:03:03;3.00;;;1.53;;
1454;SDS011;721;48.168;12.818;2024-03-08T12:05:31;2.47;;;2.27;;
1454;SDS011;721;48.168;12.818;2024-03-08T12:07:59;3.73;;;2.33;;
1454;SDS011;721;48.168;12.818;2024-03-08T12:10:28;3.50;;;2.40;;
1454;SDS011;721;48.168;12.818;2024-03-08T12:12:55;3.23;;;2.00;;
1454;SDS011;721;48.168;12.818;2024-03-08T12:15:24;8.43;;;3.47;;
1454;SDS011;721;48.168;12.818;2024-03-08T12:17:52;2.70;;;2.47;;
1454;SDS011;721;48.168;12.818;2024-03-08T12:20:21;5.20;;;3.70;;
1454;SDS011;721;48.168;12.818;2024-03-08T12:22:51;8.37;;;3.80;;
1454;SDS011;721;48.168;12.818;2024-03-08T12:25:19;4.57;;;2.37;;
1454;SDS011;721;48.168;12.818;2024-03-08T12:27:47;13.33;;;4.93;;
1454;SDS011;721;48.168;12.818;2024-03-08T12:30:20;2.40;;;1.63;;
1454;SDS011;721;48.168;12.818;2024-03-08T12:32:50;3.87;;;2.80;;
1454;SDS011;721;48.168;12.818;2024-03-08T12:35:19;5.70;;;4.03;;
1454;SDS011;721;48.168;12.818;2024-03-08T12:37:47;5.27;;;2.90;;
1454;SDS011;721;48.168;12.818;2024-03-08T12:40:16;7.10;;;4.20;;
1454;SDS011;721;48.168;12.818;2024-03-08T12:42:44;5.70;;;2.80;;
1454;SDS011;721;48.168;12.818;2024-03-08T12:45:13;5.20;;;3.70;;
1454;SDS011;721;48.168;12.818;2024-03-08T12:47:41;6.03;;;3.43;;
1454;SDS011;721;48.168;12.818;2024-03-08T12:50:08;5.20;;;2.93;;
1454;SDS011;721;48.168;12.818;2024-03-08T12:52:36;9.10;;;2.90;;
1454;SDS011;721;48.168;12.818;2024-03-08T12:55:03;6.20;;;4.30;;
1454;SDS011;721;48.168;12.818;2024-03-08T12:57:32;7.80;;;4.00;;
1454;SDS011;721;48.168;12.818;2024-03-08T12:59:59;4.10;;;3.60;;
1454;SDS011;721;48.168;12.818;2024-03-08T13:02:29;4.83;;;3.40;;
1454;SDS011;721;48.168;12.818;2024-03-08T13:04:57;4.80;;;4.30;;
1454;SDS011;721;48.168;12.818;2024-03-08T13:07:25;5.13;;;3.47;;
1454;SDS011;721;48.168;12.818;2024-03-08T13:09:52;9.07;;;4.37;;
1454;SDS011;721;48.168;12.818;2024-03-08T13:12:19;8.90;;;5.17;;
1454;SDS011;721;48.168;12.818;2024-03-08T13:14:47;8.00;;;5.63;;
1454;SDS011;721;48.168;12.818;2024-03-08T13:17:14;13.93;;;5.93;;
1454;SDS011;721;48.168;12.818;2024-03-08T13:19:42;9.23;;;4.77;;
1454;SDS011;721;48.168;12.818;2024-03-08T13:22:09;4.63;;;3.00;;
1454;SDS011;721;48.168;12.818;2024-03-08T13:24:37;7.07;;;4.07;;
1454;SDS011;721;48.168;12.818;2024-03-08T13:27:05;4.93;;;3.30;;
1454;SDS011;721;48.168;12.818;2024-03-08T13:29:44;5.00;;;4.00;;
1454;SDS011;721;48.168;12.818;2024-03-08T13:32:12;5.90;;;3.57;;
1454;SDS011;721;48.168;12.818;2024-03-08T13:34:41;6.50;;;4.73;;
1454;SDS011;721;48.168;12.818;2024-03-08T13:37:10;6.50;;;2.87;;
1454;SDS011;721;48.168;12.818;2024-03-08T13:39:37;7.20;;;4.10;;
1454;SDS011;721;48.168;12.818;2024-03-08T13:42:09;4.90;;;3.50;;
1454;SDS011;721;48.168;12.818;2024-03-08T13:44:38;9.70;;;4.60;;
1454;SDS011;721;48.168;12.818;2024-03-08T13:47:06;4.30;;;3.03;;
1454;SDS011;721;48.168;12.818;2024-03-08T13:49:32;5.67;;;4.40;;
1454;SDS011;721;48.168;12.818;2024-03-08T13:52:01;8.43;;;3.73;;
1454;SDS011;721;48.168;12.818;2024-03-08T13:54:29;7.70;;;4.43;;
1454;SDS011;721;48.168;12.818;2024-03-08T13:56:56;8.57;;;4.50;;
1454;SDS011;721;48.168;12.818;2024-03-08T13:59:23;3.80;;;3.43;;
1454;SDS011;721;48.168;12.818;2024-03-08T14:01:54;6.97;;;3.70;;
1454;SDS011;721;48.168;12.818;2024-03-08T14:04:22;7.13;;;3.93;;
1454;SDS011;721;48.168;12.818;2024-03-08T14:06:49;4.97;;;4.30;;
1454;SDS011;721;48.168;12.818;2024-03-08T14:09:18;4.10;;;3.27;;
1454;SDS011;721;48.168;12.818;2024-03-08T14:11:44;6.50;;;4.93;;
1454;SDS011;721;48.168;12.818;2024-03-08T14:14:11;3.67;;;3.30;;
1454;SDS011;721;48.168;12.818;2024-03-08T14:16:38;4.70;;;4.17;;
1454;SDS011;721;48.168;12.818;2024-03-08T14:19:05;8.97;;;4.80;;
1454;SDS011;721;48.168;12.818;2024-03-08T14:21:35;9.23;;;4.13;;
1454;SDS011;721;48.168;12.818;2024-03-08T14:24:04;6.67;;;3.47;;
1454;SDS011;721;48.168;12.818;2024-03-08T14:26:33;6.57;;;3.10;;
1454;SDS011;721;48.168;12.818;2024-03-08T14:29:01;5.97;;;3.40;;
1454;SDS011;721;48.168;12.818;2024-03-08T14:31:30;7.43;;;3.53;;
1454;SDS011;721;48.168;12.818;2024-03-08T14:33:56;7.63;;;3.63;;
1454;SDS011;721;48.168;12.818;2024-03-08T14:36:24;3.87;;;3.57;;
1454;SDS011;721;48.168;12.818;2024-03-08T14:38:51;7.77;;;5.13;;
1454;SDS011;721;48.168;12.818;2024-03-08T14:41:18;6.07;;;3.90;;
1454;SDS011;721;48.168;12.818;2024-03-08T14:43:46;4.70;;;3.40;;
1454;SDS011;721;48.168;12.818;2024-03-08T14:46:13;7.10;;;4.00;;
1454;SDS011;721;48.168;12.818;2024-03-08T14:48:42;6.90;;;5.53;;
1454;SDS011;721;48.168;12.818;2024-03-08T14:51:09;7.33;;;4.87;;
1454;SDS011;721;48.168;12.818;2024-03-08T14:53:39;9.60;;;5.63;;
1454;SDS011;721;48.168;12.818;2024-03-08T14:56:07;6.90;;;4.27;;
1454;SDS011;721;48.168;12.818;2024-03-08T14:58:34;7.80;;;3.50;;
1454;SDS011;721;48.168;12.818;2024-03-08T15:01:04;7.30;;;3.90;;
1454;SDS011;721;48.168;12.818;2024-03-08T15:03:35;7.53;;;4.33;;
1454;SDS011;721;48.168;12.818;2024-03-08T15:06:02;9.03;;;4.43;;
1454;SDS011;721;48.168;12.818;2024-03-08T15:08:33;11.40;;;5.77;;
1454;SDS011;721;48.168;12.818;2024-03-08T15:11:00;4.40;;;3.60;;
1454;SDS011;721;48.168;12.818;2024-03-08T15:13:27;6.63;;;4.80;;
1454;SDS011;721;48.168;12.818;2024-03-08T15:16:05;10.03;;;4.30;;
1454;SDS011;721;48.168;12.818;2024-03-08T15:18:33;13.03;;;6.07;;
1454;SDS011;721;48.168;12.818;2024-03-08T15:21:01;3.83;;;3.43;;